createdAt,value
2022-11-06T00:00:21.834Z,38.70
2022-11-06T00:05:42.170Z,43.97
2022-11-06T00:10:44.354Z,43.05
2022-11-06T00:15:46.247Z,40.78
2022-11-06T00:20:48.157Z,37.90
2022-11-06T00:25:53.339Z,46.13
2022-11-06T00:31:05.152Z,34.78
2022-11-06T00:36:09.735Z,34.72
2022-11-06T00:41:14.114Z,38.97
2022-11-06T00:46:16.567Z,41.88
2022-11-06T00:51:21.836Z,40.00
2022-11-06T00:56:24.509Z,36.50
2022-11-06T01:01:29.364Z,36.80
2022-11-06T01:06:33.734Z,41.55
2022-11-06T01:12:11.704Z,39.15
2022-11-06T01:17:06.660Z,46.42
2022-11-06T01:22:09.035Z,40.20
2022-11-06T01:27:27.386Z,41.55
2022-11-06T01:32:29.690Z,41.13
2022-11-06T01:37:31.670Z,39.65
2022-11-06T01:42:33.598Z,44.35
2022-11-06T01:47:35.620Z,42.33
2022-11-06T01:52:38.399Z,43.47
2022-11-06T01:57:47.842Z,36.27
2022-11-06T02:03:04.127Z,37.03
2022-11-06T02:08:07.987Z,39.45
2022-11-06T02:13:28.775Z,41.10
2022-11-06T02:18:50.677Z,43.83
2022-11-06T02:24:24.920Z,38.72
2022-11-06T02:29:38.517Z,43.08
2022-11-06T02:34:43.394Z,43.80
2022-11-06T02:39:47.106Z,48.80
2022-11-06T02:50:00.217Z,48.80
2022-11-06T02:55:29.091Z,52.45
2022-11-06T03:00:33.740Z,49.08
2022-11-06T03:05:54.804Z,45.25
2022-11-06T03:11:20.906Z,38.30
2022-11-06T03:16:40.839Z,37.78
2022-11-06T03:22:09.535Z,41.58
2022-11-06T03:27:22.197Z,43.42
2022-11-06T03:32:48.974Z,42.55
2022-11-06T03:38:08.221Z,47.08
2022-11-06T03:43:14.490Z,48.30
2022-11-06T03:48:32.430Z,38.67
2022-11-06T03:53:37.930Z,48.28
2022-11-06T03:58:45.109Z,44.35
2022-11-06T04:04:01.964Z,45.78
2022-11-06T04:09:25.599Z,39.78
2022-11-06T04:14:31.029Z,38.47
2022-11-06T04:19:33.077Z,41.95
2022-11-06T04:24:59.992Z,43.22
2022-11-06T04:30:13.950Z,43.67
2022-11-06T04:35:39.996Z,43.05
2022-11-06T04:41:03.667Z,46.60
2022-11-06T04:46:08.315Z,42.03
2022-11-06T04:51:11.982Z,48.53
2022-11-06T04:56:25.540Z,54.72
2022-11-06T05:01:27.824Z,42.33
2022-11-06T05:06:30.411Z,43.10
2022-11-06T05:11:32.594Z,53.20
2022-11-06T05:16:34.916Z,56.83
2022-11-06T05:21:55.250Z,51.50
2022-11-06T05:26:59.575Z,55.20
2022-11-06T05:32:01.944Z,48.50
2022-11-06T05:37:03.975Z,67.57
2022-11-06T05:42:05.874Z,92.15
2022-11-06T05:47:07.912Z,93.00
2022-11-06T05:52:10.120Z,77.38
2022-11-06T05:57:12.319Z,77.75
2022-11-06T06:02:14.371Z,96.97
2022-11-06T06:07:16.339Z,207.82
2022-11-06T06:12:18.583Z,81.22
2022-11-06T06:17:21.072Z,127.60
2022-11-06T06:22:22.951Z,186.68
2022-11-06T06:27:27.544Z,173.35
2022-11-06T06:32:29.472Z,116.78
2022-11-06T06:37:31.405Z,179.32
2022-11-06T06:42:33.349Z,317.40
2022-11-06T06:47:35.261Z,366.95
2022-11-06T06:52:37.198Z,261.33
2022-11-06T06:57:39.145Z,234.52
2022-11-06T07:02:41.023Z,363.40
2022-11-06T07:07:43.197Z,219.50
2022-11-06T07:12:51.683Z,236.77
2022-11-06T07:18:07.845Z,385.27
2022-11-06T07:23:10.002Z,144.93
2022-11-06T07:28:11.913Z,92.85
2022-11-06T07:33:14.028Z,106.28
2022-11-06T07:38:16.254Z,61.47
2022-11-06T07:43:18.426Z,82.30
2022-11-06T07:48:20.543Z,111.70
2022-11-06T07:53:23.128Z,49.22
2022-11-06T07:58:26.094Z,129.65
2022-11-06T08:03:31.292Z,66.87
2022-11-06T08:08:33.402Z,86.55
2022-11-06T08:13:35.886Z,79.15
2022-11-06T08:18:38.596Z,36.17
2022-11-06T08:23:40.690Z,38.80
2022-11-06T08:28:42.774Z,62.17
2022-11-06T08:33:44.690Z,64.70
2022-11-06T08:38:49.740Z,86.53
2022-11-06T08:43:52.550Z,62.13
2022-11-06T08:48:54.521Z,29.83
2022-11-06T08:53:58.054Z,19.15
2022-11-06T08:59:00.209Z,19.10
2022-11-06T09:04:02.233Z,31.55
2022-11-06T09:09:04.262Z,20.13
2022-11-06T09:14:12.645Z,23.25
2022-11-06T09:19:14.647Z,16.83
2022-11-06T09:24:16.792Z,20.63
2022-11-06T09:29:18.743Z,23.40
2022-11-06T09:34:20.684Z,23.23
2022-11-06T09:39:22.598Z,22.90
2022-11-06T09:44:49.647Z,30.58
2022-11-06T09:49:56.568Z,37.08
2022-11-06T09:55:10.348Z,35.35
2022-11-06T10:00:15.556Z,35.55
2022-11-06T10:05:30.749Z,24.08
2022-11-06T10:10:38.601Z,24.38
2022-11-06T10:15:50.759Z,25.42
2022-11-06T10:20:54.648Z,26.00
2022-11-06T10:26:17.117Z,23.95
2022-11-06T10:31:45.138Z,26.92
2022-11-06T10:36:59.480Z,24.70
2022-11-06T10:42:16.279Z,16.80
2022-11-06T10:47:30.071Z,20.38
2022-11-06T10:57:56.952Z,19.95
2022-11-06T11:03:01.995Z,26.42
2022-11-06T11:08:04.125Z,26.30
2022-11-06T11:13:08.665Z,17.70
2022-11-06T11:18:18.660Z,24.08
2022-11-06T11:23:25.018Z,25.60
2022-11-06T11:28:34.449Z,21.25
2022-11-06T11:33:38.542Z,18.27
2022-11-06T11:38:42.002Z,23.25
2022-11-06T11:43:44.019Z,23.00
2022-11-06T11:48:55.889Z,15.85
2022-11-06T11:54:11.352Z,15.68
2022-11-06T11:59:27.794Z,12.77
2022-11-06T12:04:32.313Z,10.70
2022-11-06T12:09:42.892Z,17.13
2022-11-06T12:14:44.781Z,15.07
2022-11-06T12:19:53.388Z,23.45
2022-11-06T12:25:10.047Z,25.70
2022-11-06T12:30:16.378Z,25.38
2022-11-06T12:35:30.987Z,24.00
2022-11-06T12:40:39.690Z,26.55
2022-11-06T12:45:54.996Z,24.25
2022-11-06T12:51:25.606Z,24.60
2022-11-06T12:56:48.942Z,22.40
2022-11-06T13:02:03.000Z,26.42
2022-11-06T13:07:46.920Z,22.40
2022-11-06T13:13:19.277Z,27.38
2022-11-06T13:18:30.284Z,23.33
2022-11-06T13:23:51.126Z,21.50
2022-11-06T13:28:57.112Z,25.60
2022-11-06T13:34:02.948Z,22.05
2022-11-06T13:39:35.858Z,24.48
2022-11-06T13:44:37.975Z,22.77
2022-11-06T13:50:00.913Z,19.42
2022-11-06T13:55:24.155Z,24.85
2022-11-06T14:00:44.320Z,21.00
2022-11-06T14:05:53.295Z,24.83
2022-11-06T14:11:11.776Z,29.42
2022-11-06T14:16:14.135Z,24.83
2022-11-06T14:21:38.104Z,27.50
2022-11-06T14:32:10.268Z,20.75
2022-11-06T14:37:18.354Z,30.35
2022-11-06T14:42:29.719Z,30.48
2022-11-06T14:47:36.243Z,31.85
2022-11-06T14:52:48.394Z,49.25
2022-11-06T14:57:53.289Z,39.15
2022-11-06T15:02:55.251Z,32.70
2022-11-06T15:08:04.902Z,39.22
2022-11-06T15:13:17.931Z,44.30
2022-11-06T15:18:23.025Z,52.65
2022-11-06T15:24:10.237Z,42.45
2022-11-06T15:29:26.475Z,74.90
2022-11-06T15:34:36.561Z,58.75
2022-11-06T15:40:00.273Z,52.33
2022-11-06T15:50:19.963Z,47.15
2022-11-06T15:55:36.275Z,57.47
2022-11-06T16:00:42.293Z,59.30
2022-11-06T16:05:45.870Z,63.88
2022-11-06T16:16:01.248Z,75.90
2022-11-06T16:21:13.407Z,70.78
2022-11-06T16:26:38.250Z,74.80
2022-11-06T16:31:40.204Z,62.20
2022-11-06T16:37:03.590Z,84.90
2022-11-06T16:42:16.755Z,63.72
2022-11-06T16:47:22.928Z,86.15
2022-11-06T16:52:33.615Z,76.80
2022-11-06T16:57:43.212Z,79.38
2022-11-06T17:02:55.645Z,88.82
2022-11-06T17:08:16.362Z,145.25
2022-11-06T17:13:22.036Z,105.60
2022-11-06T17:18:38.039Z,104.22
2022-11-06T17:23:41.063Z,121.50
2022-11-06T17:28:42.935Z,120.87
2022-11-06T17:33:51.242Z,111.22
2022-11-06T17:38:57.612Z,108.70
2022-11-06T17:44:04.281Z,93.50
2022-11-06T17:49:06.995Z,118.38
2022-11-06T17:54:09.873Z,124.60
2022-11-06T17:59:13.310Z,72.83
2022-11-06T18:04:15.233Z,65.72
2022-11-06T18:09:17.088Z,82.25
2022-11-06T18:14:20.600Z,89.60
2022-11-06T18:19:24.277Z,69.60
2022-11-06T18:29:28.248Z,75.43
2022-11-06T18:34:30.171Z,67.72
2022-11-06T18:39:32.412Z,73.35
2022-11-06T18:44:41.619Z,89.38
2022-11-06T18:49:43.496Z,63.42
2022-11-06T18:54:45.447Z,54.75
2022-11-06T18:59:47.306Z,57.45
2022-11-06T19:04:49.209Z,78.93
2022-11-06T19:09:51.152Z,74.00
2022-11-06T19:14:53.100Z,67.03
2022-11-06T19:19:55.010Z,69.88
2022-11-06T19:24:56.985Z,78.53
2022-11-06T19:30:00.469Z,89.70
2022-11-06T19:35:02.570Z,86.47
2022-11-06T19:40:06.353Z,66.85
2022-11-06T19:45:09.167Z,95.25
2022-11-06T19:50:11.124Z,65.13
2022-11-06T19:55:25.688Z,66.60
2022-11-06T20:00:29.046Z,60.25
2022-11-06T20:05:31.221Z,58.83
2022-11-06T20:10:35.135Z,62.38
2022-11-06T20:15:37.120Z,65.70
2022-11-06T20:20:38.966Z,75.75
2022-11-06T20:25:40.938Z,73.95
2022-11-06T20:30:42.811Z,81.32
2022-11-06T20:35:45.142Z,73.13
2022-11-06T20:40:46.988Z,73.80
2022-11-06T20:45:49.369Z,83.75
2022-11-06T20:51:06.391Z,71.65
2022-11-06T20:56:12.450Z,82.10
2022-11-06T21:01:18.152Z,70.72
2022-11-06T21:06:21.696Z,75.40
2022-11-06T21:16:32.836Z,80.13
2022-11-06T21:21:37.480Z,92.88
2022-11-06T21:26:40.097Z,90.05
2022-11-06T21:31:48.599Z,86.72
2022-11-06T21:36:51.453Z,95.32
2022-11-06T21:41:53.367Z,99.97
2022-11-06T21:46:55.560Z,93.20
2022-11-06T21:52:17.351Z,95.70
2022-11-06T21:57:19.240Z,91.68
2022-11-06T22:02:21.324Z,102.60
2022-11-06T22:07:23.275Z,103.80
2022-11-06T22:12:25.183Z,133.13
2022-11-06T22:17:27.264Z,123.15
2022-11-06T22:22:29.613Z,106.85
2022-11-06T22:27:31.634Z,105.05
2022-11-06T22:32:33.468Z,108.32
2022-11-06T22:37:35.419Z,105.97
2022-11-06T22:42:37.251Z,98.97
2022-11-06T22:47:39.992Z,107.10
2022-11-06T22:52:41.916Z,120.00
2022-11-06T22:57:43.750Z,109.63
2022-11-06T23:02:45.695Z,115.18
2022-11-06T23:07:47.660Z,99.60
2022-11-06T23:12:49.575Z,86.85
2022-11-06T23:17:52.623Z,88.75
2022-11-06T23:22:54.707Z,88.85
2022-11-06T23:27:58.330Z,89.30
2022-11-06T23:33:00.196Z,71.68
2022-11-06T23:38:02.410Z,67.63
2022-11-06T23:43:04.282Z,64.25
2022-11-06T23:48:12.741Z,68.35
2022-11-06T23:53:16.477Z,57.83
2022-11-06T23:58:18.755Z,64.00
